Maxwell, Nebraska
Current Conditions -  °F | °C
As of 1:53 AM on Sunday 21 Dec 2014 (Local Time) from KLBF Reporting Station
Few Clouds Few Clouds  
Wind Chill: 18°   Ceiling: Unl
Heat Index: 24°   Visibility: 10mi
Dew Point: 22°   Wind: 5mph
Humidity: 91%   Direction: 260°W
Pressure: 29.88"   Gusts: NA
Location:  41.08°N, 100.52°W
Report Text: KLBF 210753Z AUTO 26004KT 10SM FEW120 M04/M06 A2988 RMK AO2 SLP140 T10441056
Loading
Personal Weather Stations






























Interactive Weather Map New forecast layout! Learn more

10-Day Weather Forecast

Advertisements
Track Severe Weather on mobile